createdAt,value
2023-03-25T05:54:50.394Z,7.67
2023-03-25T05:57:53.224Z,7.86
2023-03-25T06:00:58.721Z,8.07
2023-03-25T06:04:05.332Z,8.53
2023-03-25T06:07:23.794Z,9.68
2023-03-25T06:10:45.805Z,10.58
2023-03-25T06:17:30.566Z,9.72
2023-03-25T06:20:47.135Z,9.28
2023-03-25T06:24:11.647Z,9.95
2023-03-25T06:27:20.866Z,10.50
2023-03-25T06:30:24.001Z,10.15
2023-03-25T06:33:42.724Z,10.15
2023-03-25T06:36:50.157Z,10.14
2023-03-25T06:39:56.700Z,9.43
2023-03-25T06:43:02.779Z,9.08
2023-03-25T06:46:19.596Z,9.10
2023-03-25T06:49:39.292Z,9.00
2023-03-25T06:52:45.565Z,9.02
2023-03-25T06:55:49.145Z,9.00
2023-03-25T06:58:55.209Z,9.14
2023-03-25T07:02:01.729Z,9.07
2023-03-25T07:05:07.290Z,8.94
2023-03-25T07:08:12.061Z,8.93
2023-03-25T07:11:18.624Z,8.93
2023-03-25T07:14:27.059Z,8.94
2023-03-25T07:17:31.019Z,9.06
2023-03-25T07:20:46.669Z,9.21
2023-03-25T07:23:49.672Z,9.55
2023-03-25T07:26:55.702Z,10.33
2023-03-25T07:29:59.494Z,10.65
2023-03-25T07:33:01.962Z,10.56
2023-03-25T07:36:06.214Z,10.30
2023-03-25T07:39:08.774Z,10.46
2023-03-25T07:42:11.226Z,10.68
2023-03-25T07:45:15.725Z,10.82
2023-03-25T07:48:18.275Z,11.07
2023-03-25T07:51:20.748Z,11.65
2023-03-25T07:54:24.425Z,11.86
2023-03-25T07:57:26.981Z,11.38
2023-03-25T08:00:31.157Z,10.99
2023-03-25T08:03:35.077Z,11.57
2023-03-25T08:06:37.760Z,11.10
2023-03-25T08:09:42.138Z,11.82
2023-03-25T08:12:45.385Z,12.18
2023-03-25T08:15:49.700Z,12.68
2023-03-25T08:18:53.154Z,12.22
2023-03-25T08:21:55.994Z,11.73
2023-03-25T08:24:58.786Z,12.10
2023-03-25T08:28:01.260Z,12.48
2023-03-25T08:31:06.636Z,13.33
2023-03-25T08:34:09.102Z,13.41
2023-03-25T08:37:11.564Z,12.49
2023-03-25T08:40:14.257Z,12.50
2023-03-25T08:43:16.809Z,12.46
2023-03-25T08:46:20.726Z,12.65
2023-03-25T08:49:23.457Z,12.56
2023-03-25T08:52:27.457Z,12.33
2023-03-25T08:55:29.903Z,11.95
2023-03-25T08:58:32.393Z,11.32
2023-03-25T09:01:37.540Z,11.05
2023-03-25T09:04:40.864Z,10.95
2023-03-25T09:07:43.389Z,11.06
2023-03-25T09:10:46.166Z,11.09
2023-03-25T09:13:48.626Z,10.98
2023-03-25T09:16:52.386Z,10.86
2023-03-25T09:19:56.377Z,10.86
2023-03-25T09:23:00.177Z,11.41
2023-03-25T09:26:05.211Z,11.49
2023-03-25T09:29:07.673Z,11.81
2023-03-25T09:32:11.456Z,11.81
2023-03-25T09:35:14.052Z,12.43
2023-03-25T09:38:17.002Z,12.74
2023-03-25T09:41:31.592Z,12.47
2023-03-25T09:44:39.445Z,12.15
2023-03-25T09:47:53.323Z,11.77
2023-03-25T09:50:58.778Z,11.38
2023-03-25T09:54:05.396Z,11.21
2023-03-25T09:57:12.084Z,11.36
2023-03-25T10:00:19.665Z,11.33
2023-03-25T10:03:30.542Z,11.63
2023-03-25T10:06:39.005Z,11.64
2023-03-25T10:09:49.692Z,11.77
2023-03-25T10:13:04.375Z,11.60
2023-03-25T10:16:15.063Z,11.41
2023-03-25T10:19:39.306Z,11.22
2023-03-25T10:22:57.071Z,11.20
2023-03-25T10:26:06.668Z,11.43
2023-03-25T10:29:14.151Z,11.82
2023-03-25T10:32:18.858Z,11.75
2023-03-25T10:35:27.122Z,11.82
2023-03-25T10:38:33.763Z,11.65
2023-03-25T10:41:39.717Z,11.81
2023-03-25T10:44:43.538Z,12.06
2023-03-25T10:47:48.407Z,12.43
2023-03-25T10:50:54.298Z,13.19
2023-03-25T10:53:57.347Z,13.98
2023-03-25T10:57:02.949Z,14.34
2023-03-25T11:00:14.694Z,13.66
2023-03-25T11:03:21.143Z,12.49
2023-03-25T11:06:29.707Z,11.98
2023-03-25T11:09:36.724Z,11.76
2023-03-25T11:12:43.315Z,11.62
2023-03-25T11:15:46.098Z,11.35
2023-03-25T11:18:48.773Z,11.95
2023-03-25T11:21:56.404Z,12.61
2023-03-25T11:25:01.758Z,13.41
2023-03-25T11:28:10.641Z,13.56
2023-03-25T11:31:16.759Z,13.80
2023-03-25T11:34:21.568Z,13.41
2023-03-25T11:37:26.278Z,14.13
2023-03-25T11:40:31.122Z,14.64
2023-03-25T11:43:36.682Z,14.67
2023-03-25T11:46:44.082Z,13.01
2023-03-25T11:49:50.317Z,12.72
2023-03-25T11:52:57.397Z,13.76
2023-03-25T11:56:04.447Z,13.75
2023-03-25T11:59:11.932Z,12.80
2023-03-25T12:02:24.549Z,12.19
2023-03-25T12:05:27.065Z,12.06
2023-03-25T12:08:42.470Z,12.57
2023-03-25T12:11:55.502Z,13.05
2023-03-25T12:15:12.329Z,13.93
2023-03-25T12:18:31.954Z,13.60
2023-03-25T12:21:49.549Z,13.51
2023-03-25T12:25:08.075Z,14.23
2023-03-25T12:28:31.211Z,13.35
2023-03-25T12:31:47.099Z,12.96
2023-03-25T12:35:00.317Z,12.70
2023-03-25T12:38:20.606Z,12.83
2023-03-25T12:41:33.653Z,12.62
2023-03-25T12:44:49.879Z,12.39
2023-03-25T12:47:57.267Z,12.33
2023-03-25T12:51:10.933Z,12.61
2023-03-25T12:54:31.194Z,12.84
2023-03-25T12:57:49.258Z,12.46
2023-03-25T13:01:01.302Z,12.18
2023-03-25T13:04:26.421Z,11.98
2023-03-25T13:07:35.416Z,12.09
2023-03-25T13:10:41.786Z,11.67
2023-03-25T13:13:49.479Z,11.31
2023-03-25T13:16:55.710Z,11.16
2023-03-25T13:20:01.897Z,10.96
2023-03-25T13:23:07.797Z,11.70
2023-03-25T13:26:12.821Z,12.83
2023-03-25T13:29:27.697Z,13.07
2023-03-25T13:32:36.427Z,13.06
2023-03-25T13:35:46.010Z,13.28
2023-03-25T13:38:52.934Z,13.41
2023-03-25T13:42:00.981Z,13.13
2023-03-25T13:45:07.433Z,12.75
2023-03-25T13:48:17.774Z,13.30
2023-03-25T13:51:21.168Z,13.68
2023-03-25T13:54:28.006Z,12.75
2023-03-25T13:58:09.122Z,12.46
2023-03-25T14:01:37.173Z,12.70
2023-03-25T14:05:11.653Z,12.45
2023-03-25T14:08:35.439Z,12.48
2023-03-25T14:11:44.972Z,12.27
2023-03-25T14:14:51.394Z,11.75
2023-03-25T14:17:56.248Z,11.47
2023-03-25T14:20:59.413Z,11.30
2023-03-25T14:24:06.136Z,11.10
2023-03-25T14:27:17.874Z,10.93
2023-03-25T14:30:23.269Z,10.72
2023-03-25T14:33:27.064Z,10.78
2023-03-25T14:36:30.295Z,10.50
2023-03-25T14:39:39.751Z,10.25
2023-03-25T14:42:57.377Z,10.10
2023-03-25T14:46:18.408Z,10.10
2023-03-25T14:49:30.127Z,10.09
2023-03-25T14:52:34.481Z,10.07
2023-03-25T14:55:42.943Z,10.02
2023-03-25T14:58:45.949Z,9.90
2023-03-25T15:01:49.041Z,9.62
2023-03-25T15:04:59.400Z,9.25
2023-03-25T15:08:14.340Z,9.05
2023-03-25T15:11:19.175Z,8.97
2023-03-25T15:14:25.513Z,9.07
2023-03-25T15:17:44.331Z,9.66
2023-03-25T15:20:48.112Z,10.22
2023-03-25T15:23:53.545Z,10.38
2023-03-25T15:26:58.038Z,10.32
2023-03-25T15:30:09.489Z,10.24
2023-03-25T15:33:24.561Z,10.30
2023-03-25T15:36:45.717Z,10.24
2023-03-25T15:40:01.654Z,10.18
2023-03-25T15:43:25.827Z,10.16
2023-03-25T15:46:40.890Z,10.11
2023-03-25T15:50:25.774Z,10.12
2023-03-25T15:53:50.972Z,10.20
2023-03-25T15:56:58.046Z,10.06
2023-03-25T16:00:11.826Z,9.80
2023-03-25T16:03:17.242Z,9.69
2023-03-25T16:06:21.732Z,9.82
2023-03-25T16:09:28.832Z,10.38
2023-03-25T16:12:31.637Z,10.49
2023-03-25T16:15:37.115Z,10.30
2023-03-25T16:18:41.311Z,10.03
2023-03-25T16:21:44.017Z,9.78
2023-03-25T16:24:50.212Z,9.63
2023-03-25T16:27:56.048Z,9.46
2023-03-25T16:30:58.620Z,9.30
2023-03-25T16:34:01.432Z,9.20
2023-03-25T16:37:05.523Z,9.12
2023-03-25T16:40:15.876Z,9.05
2023-03-25T16:43:21.682Z,8.85
2023-03-25T16:46:24.844Z,8.72
2023-03-25T16:49:30.972Z,8.72
2023-03-25T16:52:35.517Z,8.69
2023-03-25T16:55:48.887Z,8.64
2023-03-25T16:58:58.517Z,8.72
2023-03-25T17:02:02.762Z,8.78
2023-03-25T17:05:16.167Z,8.84
2023-03-25T17:08:21.565Z,8.77
2023-03-25T17:11:29.018Z,8.71
2023-03-25T17:19:08.096Z,8.66
2023-03-25T17:22:17.612Z,8.67
2023-03-25T17:25:30.390Z,8.65
2023-03-25T17:28:44.284Z,8.65
2023-03-25T17:31:56.289Z,8.59
2023-03-25T17:35:25.469Z,8.73
2023-03-25T17:38:35.950Z,8.34
2023-03-25T18:26:08.653Z,6.66
2023-03-25T18:29:30.327Z,6.76
2023-03-25T18:32:37.493Z,6.82
2023-03-25T18:35:55.906Z,6.93
2023-03-25T18:39:00.860Z,6.96
2023-03-25T18:42:07.428Z,7.05
2023-03-25T18:45:30.167Z,7.05
2023-03-25T18:48:34.708Z,7.18
2023-03-25T18:51:45.124Z,7.17
2023-03-25T18:54:51.677Z,7.26
2023-03-25T18:58:12.262Z,7.26
2023-03-25T19:01:18.812Z,7.34
2023-03-25T19:04:22.869Z,7.39
2023-03-25T19:07:34.650Z,7.33
